createdAt,value
2017-11-18T00:00:15.160Z,8.2
2017-11-18T00:01:15.130Z,9.0
2017-11-18T00:02:15.153Z,8.5
2017-11-18T00:03:25.281Z,9.3
2017-11-18T00:04:14.899Z,8.9
2017-11-18T00:05:14.949Z,8.6
2017-11-18T00:06:15.157Z,8.4
2017-11-18T00:07:15.133Z,8.9
2017-11-18T00:08:15.088Z,8.5
2017-11-18T00:09:14.976Z,8.6
2017-11-18T00:10:15.195Z,8.5
2017-11-18T00:11:14.958Z,8.7
2017-11-18T00:12:15.094Z,8.2
2017-11-18T00:13:15.729Z,8.6
2017-11-18T00:14:14.973Z,8.3
2017-11-18T00:15:15.211Z,8.4
2017-11-18T00:16:15.175Z,8.4
2017-11-18T00:17:14.952Z,8.1
2017-11-18T00:18:14.994Z,8.1
2017-11-18T00:19:15.112Z,8.5
2017-11-18T00:20:15.178Z,8.4
2017-11-18T00:21:15.811Z,8.6
2017-11-18T00:22:14.978Z,8.6
2017-11-18T00:23:17.154Z,8.3
2017-11-18T00:24:15.177Z,8.7
2017-11-18T00:25:15.176Z,8.8
2017-11-18T00:26:15.162Z,8.3
2017-11-18T00:27:15.237Z,8.5
2017-11-18T00:28:15.283Z,8.7
2017-11-18T00:29:15.180Z,9.1
2017-11-18T00:30:14.946Z,8.5
2017-11-18T00:31:15.178Z,8.7
2017-11-18T00:32:15.190Z,9.3
2017-11-18T00:33:15.176Z,9.1
2017-11-18T00:34:15.141Z,8.8
2017-11-18T00:35:15.110Z,9.2
2017-11-18T00:36:16.125Z,9.5
2017-11-18T00:37:15.209Z,9.0
2017-11-18T00:38:14.985Z,9.5
2017-11-18T00:39:16.398Z,9.3
2017-11-18T00:40:14.978Z,9.2
2017-11-18T00:41:15.008Z,9.4
2017-11-18T00:42:15.836Z,9.1
2017-11-18T00:43:15.192Z,9.7
2017-11-18T00:44:15.178Z,9.3
2017-11-18T00:45:15.276Z,9.8
2017-11-18T00:46:15.195Z,9.1
2017-11-18T00:47:15.189Z,8.7
2017-11-18T00:48:15.207Z,10.0
2017-11-18T00:49:15.231Z,9.2
2017-11-18T00:50:15.185Z,9.4
2017-11-18T00:51:15.199Z,9.5
2017-11-18T00:52:15.209Z,8.9
2017-11-18T00:53:15.239Z,9.4
2017-11-18T00:54:15.879Z,10.2
2017-11-18T00:55:15.850Z,9.5
2017-11-18T00:56:15.245Z,9.4
2017-11-18T00:57:15.213Z,9.2
2017-11-18T00:58:14.983Z,9.7
2017-11-18T00:59:15.039Z,9.1
2017-11-18T01:00:16.145Z,9.0
2017-11-18T01:01:15.235Z,9.5
2017-11-18T01:02:15.213Z,9.2
2017-11-18T01:03:15.226Z,9.5
2017-11-18T01:04:15.100Z,9.4
2017-11-18T01:05:15.241Z,9.7
2017-11-18T01:06:15.395Z,9.0
2017-11-18T01:07:15.117Z,9.5
2017-11-18T01:08:15.921Z,8.9
2017-11-18T01:09:15.330Z,9.0
2017-11-18T01:10:15.289Z,9.6
2017-11-18T01:11:15.277Z,9.0
2017-11-18T01:12:15.091Z,9.2
2017-11-18T01:13:15.798Z,8.8
2017-11-18T01:14:15.274Z,8.8
2017-11-18T01:15:15.247Z,8.8
2017-11-18T01:16:15.305Z,8.8
2017-11-18T01:17:15.283Z,9.7
2017-11-18T01:18:15.126Z,9.0
2017-11-18T01:19:15.288Z,9.1
2017-11-18T01:20:15.197Z,8.9
2017-11-18T01:21:15.351Z,9.0
2017-11-18T01:22:15.943Z,9.0
2017-11-18T01:23:15.379Z,9.7
2017-11-18T01:24:15.633Z,9.3
2017-11-18T01:25:15.427Z,8.9
2017-11-18T01:26:16.025Z,8.9
2017-11-18T01:27:15.836Z,8.8
2017-11-18T01:28:15.553Z,9.6
2017-11-18T01:29:16.651Z,9.6
2017-11-18T01:30:15.489Z,9.4
2017-11-18T01:31:15.407Z,9.4
2017-11-18T01:32:15.446Z,9.5
2017-11-18T01:33:15.387Z,9.5
2017-11-18T01:34:15.212Z,9.2
2017-11-18T01:35:16.615Z,9.6
2017-11-18T01:36:16.001Z,9.3
2017-11-18T01:37:18.095Z,10.5
2017-11-18T01:38:16.578Z,9.7
2017-11-18T01:39:15.442Z,9.3
2017-11-18T01:40:16.054Z,9.5
2017-11-18T01:41:15.399Z,9.4
2017-11-18T01:42:15.914Z,10.0
2017-11-18T01:43:16.013Z,9.8
2017-11-18T01:44:16.682Z,9.8
2017-11-18T01:45:15.206Z,9.6
2017-11-18T01:46:16.375Z,9.4
2017-11-18T01:47:30.609Z,9.2
2017-11-18T01:48:15.414Z,9.5
2017-11-18T01:49:16.143Z,9.5
2017-11-18T01:50:16.018Z,9.4
2017-11-18T01:51:15.279Z,9.4
2017-11-18T01:52:15.378Z,10.1
2017-11-18T01:53:15.467Z,9.5
2017-11-18T01:54:15.455Z,10.2
2017-11-18T01:55:16.105Z,9.3
2017-11-18T01:56:15.458Z,9.5
2017-11-18T01:57:16.369Z,9.0
2017-11-18T01:58:15.372Z,10.0
2017-11-18T01:59:15.382Z,9.3
2017-11-18T02:00:16.104Z,9.5
2017-11-18T02:01:15.397Z,9.6
2017-11-18T02:02:15.382Z,9.7
2017-11-18T02:03:15.399Z,9.4
2017-11-18T02:04:16.150Z,9.7
2017-11-18T02:05:15.412Z,9.6
2017-11-18T02:06:15.358Z,9.6
2017-11-18T02:07:15.410Z,9.8
2017-11-18T02:08:15.234Z,9.7
2017-11-18T02:09:15.469Z,9.9
2017-11-18T02:10:16.479Z,9.7
2017-11-18T02:11:15.445Z,9.5
2017-11-18T02:12:17.003Z,10.0
2017-11-18T02:13:15.197Z,9.6
2017-11-18T02:14:15.353Z,9.8
2017-11-18T02:15:15.951Z,9.8
2017-11-18T02:16:15.436Z,10.5
2017-11-18T02:17:16.795Z,9.8
2017-11-18T02:18:16.469Z,9.8
2017-11-18T02:19:16.053Z,9.8
2017-11-18T02:20:18.336Z,10.1
2017-11-18T02:21:15.239Z,10.2
2017-11-18T02:22:15.507Z,9.9
2017-11-18T02:23:17.385Z,9.7
2017-11-18T02:24:15.761Z,9.9
2017-11-18T02:25:16.843Z,10.1
2017-11-18T02:26:15.879Z,9.6
2017-11-18T02:33:46.469Z,9.5
2017-11-18T02:34:00.631Z,9.6
2017-11-18T02:35:00.567Z,10.1
2017-11-18T02:36:01.878Z,9.8
2017-11-18T02:37:00.750Z,10.0
2017-11-18T02:38:00.612Z,9.8
2017-11-18T02:39:00.620Z,9.9
2017-11-18T02:40:00.368Z,9.9
2017-11-18T02:41:00.532Z,10.0
2017-11-18T02:42:02.270Z,9.2
2017-11-18T02:43:00.525Z,9.8
2017-11-18T02:44:00.570Z,9.4
2017-11-18T02:45:00.549Z,9.6
2017-11-18T02:46:00.357Z,9.5
2017-11-18T02:47:00.312Z,10.0
2017-11-18T02:48:00.595Z,9.0
2017-11-18T02:49:00.579Z,9.1
2017-11-18T02:50:00.688Z,9.5
2017-11-18T02:51:00.690Z,9.6
2017-11-18T02:52:10.717Z,9.3
2017-11-18T02:53:01.291Z,9.4
2017-11-18T02:54:00.687Z,9.0
2017-11-18T02:55:00.714Z,9.0
2017-11-18T02:56:00.704Z,9.2
2017-11-18T02:57:00.663Z,9.3
2017-11-18T02:58:00.715Z,9.1
2017-11-18T02:59:00.587Z,9.6
2017-11-18T03:00:03.522Z,9.3
2017-11-18T03:01:00.696Z,9.1
2017-11-18T03:02:00.672Z,9.1
2017-11-18T03:03:00.494Z,9.6
2017-11-18T03:04:00.705Z,9.1
2017-11-18T03:05:00.528Z,9.2
2017-11-18T03:06:00.747Z,9.1
2017-11-18T03:07:00.557Z,8.7
2017-11-18T03:08:00.771Z,9.0
2017-11-18T03:09:01.199Z,9.0
2017-11-18T03:10:00.777Z,9.0
2017-11-18T03:11:01.754Z,8.6
2017-11-18T03:12:00.734Z,8.7
2017-11-18T03:13:00.689Z,8.9
2017-11-18T03:14:00.715Z,9.1
2017-11-18T03:15:00.377Z,8.5
2017-11-18T03:16:00.625Z,8.6
2017-11-18T03:17:00.614Z,8.9
2017-11-18T03:18:00.612Z,9.3
2017-11-18T03:19:00.651Z,8.8
2017-11-18T03:20:00.624Z,8.5
2017-11-18T03:21:16.851Z,8.4
2017-11-18T03:22:00.647Z,8.4
2017-11-18T03:23:00.377Z,8.2
2017-11-18T03:24:00.607Z,8.3
2017-11-18T03:25:00.643Z,8.6
2017-11-18T03:26:00.632Z,8.5
2017-11-18T03:27:00.633Z,8.6
2017-11-18T03:28:01.215Z,8.2
2017-11-18T03:29:00.667Z,8.1
2017-11-18T03:30:00.615Z,8.1
2017-11-18T03:31:01.377Z,8.4
2017-11-18T03:32:00.634Z,7.8
2017-11-18T03:33:00.678Z,8.0
2017-11-18T03:34:00.785Z,7.6
2017-11-18T03:35:00.823Z,7.7
2017-11-18T03:36:01.055Z,8.0
2017-11-18T03:37:00.776Z,7.8
2017-11-18T03:38:00.871Z,7.5
2017-11-18T03:39:00.604Z,8.0
2017-11-18T03:40:00.620Z,7.2
2017-11-18T03:41:12.805Z,7.7
2017-11-18T03:42:00.615Z,7.8
2017-11-18T03:43:00.862Z,7.8
2017-11-18T03:44:00.838Z,7.7
2017-11-18T03:45:00.853Z,7.6
2017-11-18T03:46:00.686Z,7.8
2017-11-18T03:47:00.632Z,7.4
2017-11-18T03:48:00.447Z,7.5
2017-11-18T03:49:01.317Z,7.7
2017-11-18T03:50:00.473Z,7.7
2017-11-18T03:51:00.646Z,7.4
2017-11-18T03:52:03.991Z,7.7
2017-11-18T03:53:01.760Z,7.3
2017-11-18T03:54:01.303Z,7.4
2017-11-18T03:55:00.485Z,6.9
2017-11-18T03:56:00.703Z,6.9
2017-11-18T03:57:00.445Z,6.9
2017-11-18T03:58:00.689Z,7.4
2017-11-18T03:59:00.674Z,7.5
2017-11-18T04:00:00.696Z,7.2
2017-11-18T04:01:00.698Z,7.2
2017-11-18T04:02:10.972Z,7.0
2017-11-18T04:03:00.641Z,7.1
2017-11-18T04:04:00.832Z,7.1
2017-11-18T04:05:01.814Z,6.9
2017-11-18T04:06:00.824Z,7.0
2017-11-18T04:07:02.100Z,6.9
2017-11-18T04:08:01.345Z,6.8
2017-11-18T04:09:00.652Z,6.9
2017-11-18T04:10:00.633Z,7.1
2017-11-18T04:11:00.884Z,7.0
2017-11-18T04:12:10.681Z,6.9
2017-11-18T04:13:00.617Z,6.7
2017-11-18T04:14:01.856Z,6.7
2017-11-18T04:15:01.488Z,6.8
2017-11-18T04:16:00.861Z,6.7
2017-11-18T04:17:00.765Z,6.5
2017-11-18T04:18:01.659Z,6.5
2017-11-18T04:19:00.753Z,6.2
2017-11-18T04:20:00.796Z,6.4
2017-11-18T04:21:01.491Z,6.8
2017-11-18T04:22:01.797Z,6.5
2017-11-18T04:23:00.808Z,6.3
2017-11-18T04:24:00.805Z,6.7
2017-11-18T04:25:00.776Z,6.7
2017-11-18T04:26:00.826Z,6.7
2017-11-18T04:27:00.786Z,6.6
2017-11-18T04:28:01.480Z,7.0
2017-11-18T04:29:00.790Z,6.4
2017-11-18T04:30:00.808Z,6.9
2017-11-18T04:31:00.813Z,6.3
2017-11-18T04:32:00.803Z,6.1
2017-11-18T04:33:00.767Z,6.4
2017-11-18T04:34:00.796Z,6.2
2017-11-18T04:35:00.821Z,5.7
2017-11-18T04:36:01.502Z,6.0
2017-11-18T04:37:00.789Z,6.5
2017-11-18T04:38:00.881Z,6.5
2017-11-18T04:39:00.789Z,6.2
2017-11-18T04:40:00.838Z,6.3
2017-11-18T04:41:01.047Z,6.2
2017-11-18T04:42:01.645Z,5.8
2017-11-18T04:43:00.910Z,6.2
2017-11-18T04:44:00.916Z,6.1
2017-11-18T04:45:00.722Z,6.3
2017-11-18T04:46:00.814Z,6.2
2017-11-18T04:47:00.807Z,6.3
2017-11-18T04:48:00.819Z,6.4
2017-11-18T04:49:00.793Z,6.3
2017-11-18T04:50:00.843Z,6.2
2017-11-18T04:51:02.089Z,6.0
2017-11-18T04:52:01.139Z,6.1
2017-11-18T04:53:00.605Z,6.3
2017-11-18T04:54:00.831Z,5.7
2017-11-18T04:55:01.488Z,6.1
2017-11-18T04:56:00.706Z,5.8
2017-11-18T04:57:00.931Z,6.0
2017-11-18T04:58:00.885Z,5.6
2017-11-18T04:59:00.804Z,5.9
2017-11-18T05:00:00.698Z,5.8
2017-11-18T05:01:00.814Z,5.8
2017-11-18T05:02:00.946Z,5.6
2017-11-18T05:03:00.900Z,5.7
2017-11-18T05:04:00.851Z,5.8
2017-11-18T05:05:00.939Z,5.7
2017-11-18T05:06:01.016Z,5.7
2017-11-18T05:07:00.992Z,5.9
2017-11-18T05:08:01.628Z,5.6
2017-11-18T05:09:00.913Z,6.0
2017-11-18T05:10:00.713Z,5.7
2017-11-18T05:11:00.720Z,6.1
2017-11-18T05:12:03.088Z,5.6
2017-11-18T05:13:00.868Z,5.9
2017-11-18T05:14:01.900Z,5.9
2017-11-18T05:15:00.891Z,5.6
2017-11-18T05:16:01.014Z,5.7
2017-11-18T05:17:00.684Z,5.3
2017-11-18T05:18:01.673Z,5.8
2017-11-18T05:19:00.964Z,5.4
2017-11-18T05:20:00.766Z,5.6
2017-11-18T05:21:00.940Z,5.7
2017-11-18T05:22:01.386Z,5.6
2017-11-18T05:23:01.779Z,5.2
2017-11-18T05:24:00.928Z,5.4
2017-11-18T05:25:00.686Z,5.3
2017-11-18T05:26:00.705Z,4.9
2017-11-18T05:27:01.324Z,5.6
2017-11-18T05:28:02.784Z,5.6
2017-11-18T05:29:00.945Z,5.5
2017-11-18T05:30:01.454Z,5.4
2017-11-18T05:31:00.946Z,5.3
2017-11-18T05:32:00.802Z,5.8
2017-11-18T05:33:01.878Z,5.1
2017-11-18T05:34:02.886Z,5.4
2017-11-18T05:35:01.258Z,5.0
2017-11-18T05:36:00.987Z,5.1
2017-11-18T05:37:01.705Z,5.3
2017-11-18T05:38:01.039Z,5.0
2017-11-18T05:39:01.720Z,5.2
2017-11-18T05:40:01.002Z,5.2
2017-11-18T05:41:00.800Z,5.4
2017-11-18T05:42:01.632Z,5.0
2017-11-18T05:43:00.875Z,5.0
2017-11-18T05:44:00.734Z,5.2
2017-11-18T05:45:00.723Z,4.9
2017-11-18T05:46:00.769Z,5.4
2017-11-18T05:47:03.568Z,5.3
2017-11-18T05:48:02.391Z,5.4
2017-11-18T05:49:01.946Z,5.2
2017-11-18T05:50:01.960Z,5.3
2017-11-18T05:51:00.753Z,5.4
2017-11-18T05:52:00.976Z,5.4
2017-11-18T05:53:01.548Z,5.3
2017-11-18T05:54:03.371Z,5.2
2017-11-18T05:55:00.953Z,5.3
2017-11-18T05:56:02.169Z,5.6
2017-11-18T05:57:01.021Z,5.5
2017-11-18T05:58:17.519Z,5.4
2017-11-18T05:59:00.949Z,5.4
2017-11-18T06:00:01.057Z,5.2
2017-11-18T06:01:02.341Z,5.5
2017-11-18T06:02:00.973Z,5.3
2017-11-18T06:03:00.947Z,5.1
2017-11-18T06:04:01.784Z,4.9
2017-11-18T06:05:01.024Z,5.0
2017-11-18T06:06:01.058Z,5.0
2017-11-18T06:07:00.847Z,5.3
2017-11-18T06:08:01.472Z,5.0
2017-11-18T06:09:01.370Z,5.1
2017-11-18T06:10:01.033Z,5.0
2017-11-18T06:11:00.986Z,5.2
2017-11-18T06:12:01.034Z,5.1
2017-11-18T06:13:00.742Z,5.0
2017-11-18T06:14:00.990Z,5.5
2017-11-18T06:15:01.537Z,5.1
2017-11-18T06:16:01.645Z,5.0
2017-11-18T06:17:01.020Z,5.3
2017-11-18T06:18:01.967Z,4.9
2017-11-18T06:19:00.773Z,4.8
2017-11-18T06:20:01.673Z,4.8
2017-11-18T06:21:00.952Z,5.0
2017-11-18T06:22:01.054Z,4.8
2017-11-18T06:23:00.989Z,4.9
2017-11-18T06:24:01.060Z,4.9
2017-11-18T06:25:01.036Z,4.8
2017-11-18T06:26:01.088Z,5.1
2017-11-18T06:27:01.375Z,5.1
2017-11-18T06:28:00.828Z,4.9
2017-11-18T06:29:03.076Z,4.8
2017-11-18T06:30:01.047Z,4.7
2017-11-18T06:31:00.863Z,4.6
2017-11-18T06:32:00.948Z,4.8
2017-11-18T06:33:09.052Z,4.8
2017-11-18T06:34:01.528Z,4.6
2017-11-18T06:35:00.985Z,4.7
2017-11-18T06:36:00.997Z,4.8
2017-11-18T06:37:00.952Z,4.6
2017-11-18T06:38:01.468Z,4.4
2017-11-18T06:39:01.943Z,4.5
2017-11-18T06:40:01.791Z,4.8
2017-11-18T06:41:01.107Z,4.4
2017-11-18T06:42:01.830Z,4.5
2017-11-18T06:43:01.202Z,4.6
2017-11-18T06:44:01.174Z,4.6
2017-11-18T06:45:00.838Z,4.9
2017-11-18T06:46:02.088Z,4.5
2017-11-18T06:47:00.904Z,4.4
2017-11-18T06:48:01.164Z,4.4
2017-11-18T06:49:01.785Z,4.4
2017-11-18T06:50:01.076Z,4.7
2017-11-18T06:51:00.843Z,4.4
2017-11-18T06:52:01.197Z,4.3
2017-11-18T06:53:01.721Z,4.3
2017-11-18T06:54:01.136Z,4.4
2017-11-18T06:55:00.923Z,4.7
2017-11-18T06:56:01.063Z,4.8
2017-11-18T06:57:01.547Z,4.3
2017-11-18T06:58:00.785Z,4.5
2017-11-18T06:59:00.971Z,4.5
2017-11-18T07:00:00.963Z,4.4
2017-11-18T07:01:00.959Z,4.5
2017-11-18T07:02:00.953Z,4.1
2017-11-18T07:03:01.004Z,4.4
2017-11-18T07:04:01.015Z,4.7
2017-11-18T07:05:01.034Z,4.3
2017-11-18T07:06:01.087Z,4.1
2017-11-18T07:07:00.988Z,4.0
2017-11-18T07:08:01.017Z,4.4
2017-11-18T07:09:01.036Z,4.2
2017-11-18T07:10:01.032Z,4.1
2017-11-18T07:11:00.994Z,4.4
2017-11-18T07:12:01.031Z,4.3
2017-11-18T07:13:00.989Z,4.3
2017-11-18T07:14:00.778Z,4.3
2017-11-18T07:15:01.067Z,4.2
2017-11-18T07:16:01.048Z,4.3
2017-11-18T07:17:01.033Z,4.2
2017-11-18T07:18:01.083Z,4.3
2017-11-18T07:19:01.031Z,4.1
2017-11-18T07:20:01.007Z,4.2
2017-11-18T07:21:01.120Z,4.0
2017-11-18T07:22:01.070Z,4.1
2017-11-18T07:23:01.053Z,4.4
2017-11-18T07:24:01.048Z,4.1
2017-11-18T07:25:01.081Z,4.4
2017-11-18T07:26:01.010Z,3.9
2017-11-18T07:27:01.079Z,4.2
2017-11-18T07:28:00.998Z,4.2
2017-11-18T07:29:01.134Z,3.9
2017-11-18T07:30:01.041Z,4.1
2017-11-18T07:31:01.067Z,4.1
2017-11-18T07:32:00.828Z,4.3
2017-11-18T07:33:01.091Z,4.5
2017-11-18T07:34:00.857Z,4.2
2017-11-18T07:35:01.054Z,4.3
2017-11-18T07:36:00.868Z,4.1
2017-11-18T07:37:01.063Z,4.5
2017-11-18T07:38:01.049Z,4.2
2017-11-18T07:39:01.100Z,4.2
2017-11-18T07:40:01.082Z,4.2
2017-11-18T07:41:00.845Z,4.2
2017-11-18T07:42:01.084Z,4.2
2017-11-18T07:43:01.246Z,4.0
2017-11-18T07:44:01.172Z,4.4
2017-11-18T07:45:01.091Z,4.2
2017-11-18T07:46:53.314Z,4.2
2017-11-18T07:47:07.391Z,4.7
2017-11-18T07:48:07.343Z,4.3
2017-11-18T07:49:07.313Z,4.6
2017-11-18T07:50:07.336Z,4.6
2017-11-18T07:51:07.321Z,4.2
2017-11-18T07:52:07.122Z,4.5
2017-11-18T07:53:07.329Z,4.1
2017-11-18T07:54:07.363Z,4.2
2017-11-18T07:55:07.320Z,4.6
2017-11-18T07:56:07.308Z,4.1
2017-11-18T07:57:07.286Z,4.4
2017-11-18T07:58:09.495Z,4.4
2017-11-18T07:59:07.321Z,4.3
2017-11-18T08:00:07.136Z,4.3
2017-11-18T08:01:07.342Z,4.3
2017-11-18T08:02:07.207Z,4.1
2017-11-18T08:03:07.523Z,4.2
2017-11-18T08:04:07.367Z,4.2
2017-11-18T08:05:07.366Z,4.6
2017-11-18T08:06:07.876Z,6.2
2017-11-18T08:07:07.304Z,14.2
2017-11-18T08:08:07.336Z,17.3
2017-11-18T08:09:07.157Z,18.4
2017-11-18T08:10:07.397Z,18.8
2017-11-18T08:11:07.437Z,17.5
2017-11-18T08:12:07.791Z,16.8
2017-11-18T08:13:09.677Z,14.8
2017-11-18T08:14:07.354Z,14.4
2017-11-18T08:15:07.424Z,13.8
2017-11-18T08:16:08.000Z,13.2
2017-11-18T08:17:07.339Z,12.3
2017-11-18T08:18:07.316Z,12.2
2017-11-18T08:19:07.379Z,11.5
2017-11-18T08:20:07.343Z,10.5
2017-11-18T08:21:07.343Z,10.7
2017-11-18T08:22:07.387Z,9.5
2017-11-18T08:23:07.367Z,9.7
2017-11-18T08:24:07.411Z,9.3
2017-11-18T08:25:07.373Z,9.4
2017-11-18T08:26:07.079Z,8.7
2017-11-18T08:27:07.323Z,9.4
2017-11-18T08:28:07.355Z,8.6
2017-11-18T08:29:07.271Z,8.5
2017-11-18T08:30:07.394Z,7.7
2017-11-18T08:31:07.361Z,7.6
2017-11-18T08:32:07.331Z,7.8
2017-11-18T08:33:07.365Z,7.3
2017-11-18T08:34:07.736Z,7.4
2017-11-18T08:35:07.436Z,7.1
2017-11-18T08:36:07.474Z,6.9
2017-11-18T08:37:07.476Z,6.9
2017-11-18T08:38:07.447Z,6.5
2017-11-18T08:39:07.474Z,6.6
2017-11-18T08:40:07.487Z,6.3
2017-11-18T08:41:07.435Z,5.6
2017-11-18T08:42:07.432Z,5.8
2017-11-18T08:43:07.555Z,6.0
2017-11-18T08:44:07.342Z,5.9
2017-11-18T08:45:07.559Z,6.1
2017-11-18T08:46:07.486Z,5.5
2017-11-18T08:47:07.279Z,5.6
2017-11-18T08:48:07.590Z,5.6
2017-11-18T08:49:07.489Z,5.3
2017-11-18T08:50:07.612Z,5.4
2017-11-18T08:51:07.592Z,5.4
2017-11-18T08:52:07.495Z,5.2
2017-11-18T08:53:08.131Z,5.3
2017-11-18T08:54:07.368Z,5.2
2017-11-18T08:55:07.413Z,5.1
2017-11-18T08:56:07.493Z,5.0
2017-11-18T08:57:07.359Z,5.1
2017-11-18T08:58:08.799Z,5.0
2017-11-18T08:59:09.675Z,4.6
2017-11-18T09:00:17.365Z,4.8
2017-11-18T09:01:07.849Z,5.0
2017-11-18T09:02:07.426Z,5.8
2017-11-18T09:03:07.421Z,12.3
2017-11-18T09:04:08.302Z,11.7
2017-11-18T09:05:08.871Z,9.6
2017-11-18T09:06:07.791Z,9.2
2017-11-18T09:07:07.859Z,8.5
2017-11-18T09:08:07.879Z,8.2
2017-11-18T09:09:07.330Z,7.8
2017-11-18T09:10:09.321Z,7.5
2017-11-18T09:11:07.633Z,7.4
2017-11-18T09:12:07.538Z,7.3
2017-11-18T09:13:07.452Z,6.8
2017-11-18T09:14:07.848Z,6.9
2017-11-18T09:15:07.782Z,6.3
2017-11-18T09:16:07.548Z,6.5
2017-11-18T09:17:07.469Z,6.0
2017-11-18T09:18:07.449Z,6.0
2017-11-18T09:19:07.609Z,5.9
2017-11-18T09:20:09.591Z,5.4
2017-11-18T09:21:07.463Z,5.5
2017-11-18T09:22:07.477Z,5.6
2017-11-18T09:23:07.473Z,5.3
2017-11-18T09:24:07.451Z,5.1
2017-11-18T09:25:07.465Z,5.1
2017-11-18T09:26:07.497Z,5.1
2017-11-18T09:27:07.493Z,5.1
2017-11-18T09:28:07.443Z,4.9
2017-11-18T09:29:07.579Z,4.7
2017-11-18T09:30:07.320Z,4.9
2017-11-18T09:31:07.622Z,4.4
2017-11-18T09:32:07.495Z,4.6
2017-11-18T09:33:07.554Z,4.7
2017-11-18T09:34:07.488Z,4.6
2017-11-18T09:35:07.742Z,4.6
2017-11-18T09:36:07.534Z,4.4
2017-11-18T09:37:07.727Z,4.2
2017-11-18T09:38:22.839Z,5.1
2017-11-18T09:39:11.185Z,5.0
2017-11-18T09:40:07.652Z,4.7
2017-11-18T09:41:07.892Z,4.6
2017-11-18T09:42:08.276Z,4.7
2017-11-18T09:43:07.730Z,4.5
2017-11-18T09:44:08.657Z,4.8
2017-11-18T09:45:08.335Z,4.5
2017-11-18T09:46:07.913Z,4.4
2017-11-18T09:47:07.712Z,4.5
2017-11-18T09:48:07.628Z,4.5
2017-11-18T09:49:07.790Z,4.3
2017-11-18T09:50:20.241Z,4.3
2017-11-18T09:51:07.535Z,3.9
2017-11-18T09:53:20.942Z,4.4
2017-11-18T09:54:21.695Z,4.0
2017-11-18T09:55:24.115Z,4.2
2017-11-18T09:56:20.618Z,4.2
2017-11-18T09:57:22.714Z,4.3
2017-11-18T09:58:21.107Z,4.0
2017-11-18T09:59:21.564Z,4.2
2017-11-18T10:00:20.937Z,3.8
2017-11-18T10:01:21.337Z,3.8
2017-11-18T10:02:21.331Z,3.9
2017-11-18T10:03:20.769Z,3.9
2017-11-18T10:04:20.746Z,4.0
2017-11-18T10:05:20.965Z,4.0
2017-11-18T10:06:22.043Z,3.9
2017-11-18T10:07:20.809Z,3.7
2017-11-18T10:08:20.630Z,3.8
2017-11-18T10:09:20.639Z,3.7
2017-11-18T10:10:21.890Z,3.8
2017-11-18T10:11:20.665Z,3.8
2017-11-18T10:12:21.278Z,3.5
2017-11-18T10:13:20.750Z,3.5
2017-11-18T10:14:20.549Z,3.9
2017-11-18T10:15:20.760Z,4.0
2017-11-18T10:16:20.744Z,3.9
2017-11-18T10:17:21.405Z,3.9
2017-11-18T10:18:20.721Z,3.7
2017-11-18T10:19:20.515Z,3.8
2017-11-18T10:20:20.763Z,3.8
2017-11-18T10:21:20.751Z,3.6
2017-11-18T10:22:22.963Z,3.6
2017-11-18T10:23:20.566Z,3.7
2017-11-18T10:24:20.729Z,4.2
2017-11-18T10:25:20.802Z,3.7
2017-11-18T10:26:20.699Z,3.8
2017-11-18T10:27:20.991Z,3.6
2017-11-18T10:28:20.715Z,3.6
2017-11-18T10:29:21.316Z,3.8
2017-11-18T10:30:21.038Z,3.6
2017-11-18T10:31:20.801Z,3.9
2017-11-18T10:32:30.907Z,3.8
2017-11-18T10:33:21.365Z,3.4
2017-11-18T10:34:21.166Z,3.6
2017-11-18T10:35:20.749Z,3.6
2017-11-18T10:36:20.795Z,3.6
2017-11-18T10:37:20.765Z,3.8
2017-11-18T10:38:20.790Z,3.8
2017-11-18T10:39:20.846Z,3.5
2017-11-18T10:40:21.113Z,3.5
2017-11-18T10:41:20.892Z,4.1
2017-11-18T10:42:24.637Z,3.7
2017-11-18T10:43:32.718Z,3.6
2017-11-18T10:44:20.984Z,3.4
2017-11-18T10:45:21.504Z,3.8
2017-11-18T10:46:21.027Z,3.6
2017-11-18T10:47:24.543Z,3.6
2017-11-18T10:48:20.875Z,3.7
2017-11-18T10:49:30.103Z,3.6
2017-11-18T10:50:25.308Z,3.8
2017-11-18T10:51:31.196Z,3.7
2017-11-18T10:52:26.299Z,3.8
2017-11-18T10:53:42.792Z,3.7
2017-11-18T10:54:38.544Z,3.4
2017-11-18T10:55:34.219Z,3.9
2017-11-18T10:56:29.489Z,3.7
2017-11-18T10:57:29.376Z,3.5
2017-11-18T10:58:25.636Z,3.6
2017-11-18T10:59:29.746Z,3.5
2017-11-18T11:00:28.927Z,3.4
2017-11-18T11:01:34.128Z,3.6
2017-11-18T11:02:26.870Z,3.6
2017-11-18T11:03:46.181Z,3.5
2017-11-18T11:04:37.625Z,3.4
2017-11-18T11:05:31.386Z,3.6
2017-11-18T11:06:29.947Z,3.7
2017-11-18T11:07:21.251Z,3.4
2017-11-18T11:08:36.238Z,3.8
2017-11-18T11:09:36.189Z,3.3
2017-11-18T11:10:58.471Z,3.6
2017-11-18T11:11:32.317Z,3.9
2017-11-18T11:13:50.233Z,3.8
2017-11-18T11:14:35.327Z,3.6
2017-11-18T11:15:39.467Z,3.4
2017-11-18T11:16:34.485Z,3.5
2017-11-18T11:17:37.460Z,3.6
2017-11-18T11:18:34.243Z,3.6
2017-11-18T11:19:34.336Z,3.4
2017-11-18T11:20:33.252Z,3.6
2017-11-18T11:21:34.328Z,3.6
2017-11-18T11:22:33.294Z,3.6
2017-11-18T11:23:33.482Z,3.6
2017-11-18T11:24:33.402Z,3.7
2017-11-18T11:25:33.478Z,3.4
2017-11-18T11:26:33.564Z,3.8
2017-11-18T11:27:33.307Z,3.5
2017-11-18T11:28:34.243Z,4.0
2017-11-18T11:29:33.482Z,3.8
2017-11-18T11:30:33.568Z,3.8
2017-11-18T11:31:33.504Z,3.6
2017-11-18T11:32:33.449Z,3.5
2017-11-18T11:33:33.588Z,3.6
2017-11-18T11:34:33.513Z,3.4
2017-11-18T11:35:33.541Z,3.5
2017-11-18T11:36:34.265Z,3.6
2017-11-18T11:37:34.215Z,4.0
2017-11-18T11:38:35.926Z,4.5
2017-11-18T11:39:33.285Z,3.9
2017-11-18T11:40:33.303Z,4.3
2017-11-18T11:41:33.409Z,4.3
2017-11-18T11:42:33.482Z,4.0
2017-11-18T11:43:33.474Z,3.8
2017-11-18T11:44:33.471Z,4.0
2017-11-18T11:45:33.476Z,3.9
2017-11-18T11:46:35.510Z,3.8
2017-11-18T11:47:35.474Z,3.8
2017-11-18T11:48:33.814Z,3.9
2017-11-18T11:49:33.498Z,3.9
2017-11-18T11:50:33.341Z,3.7
2017-11-18T11:51:33.432Z,3.8
2017-11-18T11:52:33.413Z,3.5
2017-11-18T11:53:33.469Z,4.0
2017-11-18T11:54:33.375Z,3.6
2017-11-18T11:55:33.203Z,3.6
2017-11-18T11:56:33.522Z,3.7
2017-11-18T11:57:33.572Z,3.6
2017-11-18T11:58:34.069Z,4.0
2017-11-18T11:59:35.659Z,3.6
2017-11-18T12:00:34.458Z,3.6
2017-11-18T12:01:33.327Z,3.7
2017-11-18T12:02:33.527Z,3.5
2017-11-18T12:03:36.293Z,3.6
2017-11-18T12:04:33.538Z,3.4
2017-11-18T12:05:33.241Z,3.4
2017-11-18T12:06:33.562Z,3.3
2017-11-18T12:07:51.531Z,3.3
2017-11-18T12:08:35.103Z,3.3
2017-11-18T12:09:39.746Z,3.4
2017-11-18T12:10:39.546Z,3.3
2017-11-18T12:11:34.053Z,3.4
2017-11-18T12:12:34.023Z,3.3
2017-11-18T12:13:34.218Z,3.6
2017-11-18T12:14:35.692Z,3.7
2017-11-18T12:15:35.784Z,3.5
2017-11-18T12:16:40.323Z,3.9
2017-11-18T12:17:33.658Z,4.6
2017-11-18T12:18:35.998Z,6.9
2017-11-18T12:19:37.496Z,6.6
2017-11-18T12:20:39.514Z,5.9
2017-11-18T12:21:35.117Z,5.7
2017-11-18T12:22:34.128Z,5.1
2017-11-18T12:23:35.241Z,5.1
2017-11-18T12:24:33.670Z,5.0
2017-11-18T12:25:38.296Z,4.6
2017-11-18T12:26:36.247Z,4.6
2017-11-18T12:27:34.497Z,5.0
2017-11-18T12:28:35.027Z,4.6
2017-11-18T12:29:38.719Z,4.6
2017-11-18T12:30:41.557Z,4.6
2017-11-18T12:31:38.145Z,4.4
2017-11-18T12:32:48.975Z,4.6
2017-11-18T12:33:36.962Z,4.2
2017-11-18T12:34:34.857Z,4.4
2017-11-18T12:35:39.423Z,4.3
2017-11-18T12:36:43.842Z,4.2
2017-11-18T12:37:44.828Z,4.2
2017-11-18T12:38:36.738Z,4.1
2017-11-18T12:39:36.420Z,3.8
2017-11-18T12:40:38.754Z,4.3
2017-11-18T12:41:55.618Z,5.3
2017-11-18T12:43:04.700Z,8.1
2017-11-18T12:43:40.416Z,8.8
2017-11-18T12:44:43.178Z,8.7
2017-11-18T12:45:45.053Z,9.2
2017-11-18T12:46:53.134Z,9.4
2017-11-18T12:47:54.405Z,9.7
2017-11-18T12:48:41.937Z,8.4
2017-11-18T12:49:35.479Z,7.8
2017-11-18T12:50:37.390Z,7.0
2017-11-18T12:51:57.709Z,7.3
2017-11-18T12:52:42.168Z,6.5
2017-11-18T12:53:33.486Z,6.3
2017-11-18T12:54:40.362Z,6.2
2017-11-18T12:55:39.189Z,6.5
2017-11-18T12:56:43.800Z,6.5
2017-11-18T12:57:33.832Z,6.2
2017-11-18T12:58:35.339Z,6.1
2017-11-18T12:59:46.550Z,5.5
2017-11-18T13:00:34.415Z,5.5
2017-11-18T13:01:35.214Z,5.1
2017-11-18T13:02:40.140Z,5.4
2017-11-18T13:03:50.018Z,6.0
2017-11-18T13:04:43.944Z,5.6
2017-11-18T13:05:50.253Z,6.3
2017-11-18T13:06:43.884Z,6.1
2017-11-18T13:07:36.179Z,5.8
2017-11-18T13:08:39.408Z,5.8
2017-11-18T13:09:33.587Z,5.7
2017-11-18T13:11:52.469Z,5.0
2017-11-18T13:13:03.341Z,4.8
2017-11-18T13:13:50.604Z,4.7
2017-11-18T13:14:45.811Z,4.5
2017-11-18T13:15:53.315Z,4.8
2017-11-18T13:16:46.067Z,4.8
2017-11-18T13:17:48.568Z,4.4
2017-11-18T13:18:47.450Z,4.6
2017-11-18T13:19:49.691Z,4.2
2017-11-18T13:20:50.367Z,4.5
2017-11-18T13:21:51.319Z,4.5
2017-11-18T13:22:51.023Z,4.4
2017-11-18T13:23:46.955Z,4.3
2017-11-18T13:24:47.471Z,4.0
2017-11-18T13:26:03.628Z,4.2
2017-11-18T13:26:51.916Z,4.1
2017-11-18T13:27:49.342Z,4.2
2017-11-18T13:28:46.254Z,4.2
2017-11-18T13:29:46.556Z,4.1
2017-11-18T13:30:47.118Z,4.0
2017-11-18T13:31:46.771Z,4.1
2017-11-18T13:32:45.992Z,3.8
2017-11-18T13:33:46.131Z,3.9
2017-11-18T13:34:55.842Z,3.7
2017-11-18T13:35:46.302Z,4.0
2017-11-18T13:36:47.629Z,4.0
2017-11-18T13:37:53.826Z,4.1
2017-11-18T13:38:51.855Z,4.0
2017-11-18T13:39:46.877Z,3.5
2017-11-18T13:41:02.977Z,3.9
2017-11-18T13:41:56.446Z,3.9
2017-11-18T13:42:49.007Z,3.7
2017-11-18T13:43:52.088Z,3.8
2017-11-18T13:44:46.001Z,3.6
2017-11-18T13:45:46.871Z,3.5
2017-11-18T13:46:46.561Z,3.6
2017-11-18T13:47:46.174Z,3.8
2017-11-18T13:48:45.869Z,3.8
2017-11-18T13:49:47.787Z,3.7
2017-11-18T13:50:54.494Z,3.5
2017-11-18T13:51:49.390Z,3.6
2017-11-18T13:52:47.020Z,3.7
2017-11-18T13:53:53.911Z,3.3